CMA CGM Balzac — DIHN — position and weather

sailwx.info

Track history (hours):
 
Tides and Currents Weather Stations Pressure Air Temp Water Temp Dewpoint Dewpoint Depression Visibility Wind Speed Wind Dir Waves Ship Positions

CMA CGM Balzac

Last reported at 2015-Aug-21 23:34 UTC. Time now 2015-Sep-01 10:04 UTC.
Position N 31°24' E 032°20'.
Warning: this ship's position is 10 days out of date.

Length 300.3 m; beam 40.3 m; draft 14 m.

Type: Ship. MMSI: 211378810.

Date/timePositionNaut miles runAvg speedWind from/ knotsBaromVisibWave heightAir tempDewpointWater temp
2015-Aug-21 23:34N 31°24' E 032°20'0 0.0
2015-Aug-21 22:34N 31°24' E 032°20'0 0.0
2015-Aug-21 21:33N 31°24' E 032°20'0 0.0
2015-Aug-21 20:14N 31°24' E 032°20'0 0.0
2015-Aug-21 19:32N 31°24' E 032°20'0 0.0
2015-Aug-21 18:34N 31°24' E 032°20'0 0.0
2015-Aug-21 16:34N 31°24' E 032°20'0 0.0
2015-Aug-21 15:31N 31°24' E 032°20'0 0.0
2015-Aug-21 12:34N 31°24' E 032°20'3 2.3
2015-Aug-21 11:27N 31°23' E 032°23'11 0.8
2015-Aug-20 22:19N 31°13' E 032°21'0 0.0
2015-Aug-20 21:34N 31°13' E 032°21'0 0.0
2015-Aug-20 20:27N 31°13' E 032°21'0 0.0
2015-Aug-20 18:33N 31°13' E 032°21'0 0.0
2015-Aug-20 17:34N 31°13' E 032°21'0 0.0
2015-Aug-20 16:31N 31°13' E 032°21'0 0.0
2015-Aug-20 15:20N 31°13' E 032°21'0 0.0
2015-Aug-20 14:27N 31°13' E 032°21'12 2.3
2015-Aug-20 09:11N 31°25' E 032°20'0 0.0
2015-Aug-20 08:31N 31°25' E 032°20'0 0.4
2015-Aug-20 07:33N 31°25' E 032°20'8 7.2
2015-Aug-20 06:29N 31°30' E 032°13'1111.2
2015-Aug-20 05:32N 31°38' E 032°05'1111.0
2015-Aug-20 04:34N 31°46' E 031°56'1111.1
2015-Aug-20 03:32N 31°51' E 031°44'5511.0
2015-Aug-19 22:33N 32°12' E 030°45'9310.3
2015-Aug-19 13:31N 32°48' E 029°02'1 1.0
2015-Aug-19 12:34N 32°49' E 029°02'171 6.6
2015-Aug-18 10:33N 33°60' E 025°56'  
Track history (hours):
 
Tides and Currents Weather Stations Pressure Air Temp Water Temp Dewpoint Dewpoint Depression Visibility Wind Speed Wind Dir Waves Ship Positions

CMA CGM Balzac

Last reported at 2015-Aug-21 23:34 UTC. Time now 2015-Sep-01 10:04 UTC.
Position N 31°24' E 032°20'.
Warning: this ship's position is 10 days out of date.

Length 300.3 m; beam 40.3 m; draft 14 m.

Type: Ship. MMSI: 211378810.

Date/timePositionNaut miles runAvg speedWind from/ knotsBaromVisibWave heightAir tempDewpointWater temp
2015-Aug-21 23:34N 31°24' E 032°20'0 0.0
2015-Aug-21 22:34N 31°24' E 032°20'0 0.0
2015-Aug-21 21:33N 31°24' E 032°20'0 0.0
2015-Aug-21 20:14N 31°24' E 032°20'0 0.0
2015-Aug-21 19:32N 31°24' E 032°20'0 0.0
2015-Aug-21 18:34N 31°24' E 032°20'0 0.0
2015-Aug-21 16:34N 31°24' E 032°20'0 0.0
2015-Aug-21 15:31N 31°24' E 032°20'0 0.0
2015-Aug-21 12:34N 31°24' E 032°20'3 2.3
2015-Aug-21 11:27N 31°23' E 032°23'11 0.8
2015-Aug-20 22:19N 31°13' E 032°21'0 0.0
2015-Aug-20 21:34N 31°13' E 032°21'0 0.0
2015-Aug-20 20:27N 31°13' E 032°21'0 0.0
2015-Aug-20 18:33N 31°13' E 032°21'0 0.0
2015-Aug-20 17:34N 31°13' E 032°21'0 0.0
2015-Aug-20 16:31N 31°13' E 032°21'0 0.0
2015-Aug-20 15:20N 31°13' E 032°21'0 0.0
2015-Aug-20 14:27N 31°13' E 032°21'12 2.3
2015-Aug-20 09:11N 31°25' E 032°20'0 0.0
2015-Aug-20 08:31N 31°25' E 032°20'0 0.4
2015-Aug-20 07:33N 31°25' E 032°20'8 7.2
2015-Aug-20 06:29N 31°30' E 032°13'1111.2
2015-Aug-20 05:32N 31°38' E 032°05'1111.0
2015-Aug-20 04:34N 31°46' E 031°56'1111.1
2015-Aug-20 03:32N 31°51' E 031°44'5511.0
2015-Aug-19 22:33N 32°12' E 030°45'9310.3
2015-Aug-19 13:31N 32°48' E 029°02'1 1.0
2015-Aug-19 12:34N 32°49' E 029°02'171 6.6
2015-Aug-18 10:33N 33°60' E 025°56'  

Dump ship's entire track history